Time;durP1;ratioP1;P1;durP2;ratioP2;P2;SDS_P1;SDS_P2;PMS_P1;PMS_P2;Temp;Humidity;BMP_temperature;BMP_pressure;BME280_temperature;BME280_humidity;BME280_pressure;Samples;Min_cycle;Max_cycle;Signal;HPM_P1;HPM_P2
2021/10/23 00:00:57;;;;;;;7.95;7.20;;;5.40;82.70;;;;;;5094198;29;20898;-75
2021/10/23 00:03:29;;;;;;;7.90;7.10;;;5.50;82.60;;;;;;5103667;29;20118;-75
2021/10/23 00:06:01;;;;;;;7.63;6.85;;;5.50;82.80;;;;;;5103079;29;20055;-75
2021/10/23 00:08:33;;;;;;;8.55;7.05;;;5.50;82.60;;;;;;5088379;29;20058;-75
2021/10/23 00:11:05;;;;;;;7.60;6.80;;;5.50;82.60;;;;;;5101684;29;20059;-76
2021/10/23 00:13:37;;;;;;;8.00;7.20;;;5.50;82.30;;;;;;5100965;29;20048;-75
2021/10/23 00:16:10;;;;;;;8.02;6.93;;;5.50;82.20;;;;;;5102464;29;20049;-74
2021/10/23 00:18:42;;;;;;;8.00;7.20;;;5.50;82.00;;;;;;5103862;29;20121;-75
2021/10/23 00:21:14;;;;;;;8.93;7.18;;;5.50;81.90;;;;;;5104894;29;20552;-73
2021/10/23 00:23:46;;;;;;;8.05;7.00;;;5.60;81.70;;;;;;5103517;29;20137;-75
2021/10/23 00:26:18;;;;;;;8.18;7.15;;;5.50;81.50;;;;;;5101931;29;20047;-75
2021/10/23 00:28:50;;;;;;;10.65;6.90;;;5.50;81.70;;;;;;5095360;29;20035;-75
2021/10/23 00:31:22;;;;;;;7.40;6.70;;;5.50;81.70;;;;;;5102356;29;20054;-74
2021/10/23 00:33:54;;;;;;;7.45;6.65;;;5.50;81.80;;;;;;5100674;29;20074;-76
2021/10/23 00:36:25;;;;;;;8.45;6.93;;;5.60;81.70;;;;;;5104138;29;20061;-75
2021/10/23 00:38:57;;;;;;;7.22;6.53;;;5.60;82.00;;;;;;5104144;29;20070;-76
2021/10/23 00:41:29;;;;;;;7.95;7.03;;;5.50;82.30;;;;;;5103429;29;20421;-74
2021/10/23 00:44:01;;;;;;;7.50;6.70;;;5.50;82.30;;;;;;5102887;29;20107;-74
2021/10/23 00:46:33;;;;;;;8.25;6.90;;;5.40;82.50;;;;;;5103127;29;20099;-75
2021/10/23 00:49:05;;;;;;;7.65;6.82;;;5.40;82.60;;;;;;5102898;29;20048;-73
2021/10/23 00:51:37;;;;;;;8.27;6.50;;;5.40;82.60;;;;;;5099637;29;20152;-75
2021/10/23 00:54:10;;;;;;;7.68;6.95;;;5.30;82.80;;;;;;5073023;29;20071;-76
2021/10/23 00:56:41;;;;;;;7.72;6.93;;;5.30;82.90;;;;;;5087836;29;20517;-76
2021/10/23 00:59:13;;;;;;;9.32;7.65;;;5.30;82.80;;;;;;5101882;29;20212;-76
2021/10/23 01:01:46;;;;;;;8.15;7.00;;;5.30;82.70;;;;;;5087691;28;20055;-75
2021/10/23 01:04:20;;;;;;;8.27;7.00;;;5.40;82.80;;;;;;5106090;29;20047;-76
2021/10/23 01:06:53;;;;;;;7.88;7.07;;;5.30;83.10;;;;;;5106031;29;20170;-76
2021/10/23 01:09:25;;;;;;;8.77;6.95;;;5.30;82.70;;;;;;5097894;29;20064;-74
2021/10/23 01:11:57;;;;;;;8.38;6.80;;;5.30;83.00;;;;;;5105883;29;20122;-75
2021/10/23 01:14:29;;;;;;;8.90;7.18;;;5.30;83.30;;;;;;5107101;29;20835;-76
2021/10/23 01:17:01;;;;;;;7.68;6.97;;;5.30;83.50;;;;;;5106528;29;20836;-75
2021/10/23 01:19:34;;;;;;;7.97;7.18;;;5.20;83.30;;;;;;5106587;29;20055;-75
2021/10/23 01:22:06;;;;;;;7.95;7.20;;;5.20;83.30;;;;;;5103691;29;20051;-76
2021/10/23 01:24:38;;;;;;;8.10;7.30;;;5.20;83.40;;;;;;5106017;29;20043;-75
2021/10/23 01:27:10;;;;;;;8.57;7.00;;;5.20;83.60;;;;;;5105832;29;20113;-76
2021/10/23 01:29:42;;;;;;;8.40;7.60;;;5.20;83.60;;;;;;5104214;29;20126;-76
2021/10/23 01:32:14;;;;;;;7.80;7.00;;;5.20;83.30;;;;;;5104592;29;20071;-74
2021/10/23 01:34:46;;;;;;;8.18;7.32;;;5.10;83.30;;;;;;5109880;29;20106;-75
2021/10/23 01:37:18;;;;;;;8.00;7.20;;;5.10;83.30;;;;;;5104670;29;20174;-76
2021/10/23 01:39:49;;;;;;;7.90;6.80;;;5.00;82.90;;;;;;5106704;29;20443;-75
2021/10/23 01:42:21;;;;;;;8.25;7.20;;;5.00;82.90;;;;;;5104994;29;20119;-74
2021/10/23 01:44:53;;;;;;;7.72;6.72;;;4.90;83.30;;;;;;5106716;29;20067;-76
2021/10/23 01:47:25;;;;;;;7.40;6.70;;;4.90;83.60;;;;;;5105629;29;20074;-76
2021/10/23 01:49:57;;;;;;;7.63;6.90;;;4.80;83.20;;;;;;5088783;29;20063;-78
2021/10/23 01:52:29;;;;;;;7.82;7.07;;;4.80;83.10;;;;;;5105856;29;20114;-77
2021/10/23 01:55:01;;;;;;;8.13;6.68;;;4.80;83.30;;;;;;5103855;29;20138;-75
2021/10/23 01:57:33;;;;;;;7.63;6.90;;;4.70;83.50;;;;;;5105023;29;20071;-76
2021/10/23 02:00:06;;;;;;;8.23;7.30;;;4.70;83.40;;;;;;5090372;29;20134;-76
2021/10/23 02:02:42;;;;;;;7.90;7.00;;;4.70;83.30;;;;;;5106074;29;20079;-76
2021/10/23 02:05:15;;;;;;;7.38;6.50;;;4.70;83.30;;;;;;5105808;29;20043;-77
2021/10/23 02:07:49;;;;;;;8.77;6.68;;;4.70;83.40;;;;;;5088049;29;20137;-75
2021/10/23 02:10:21;;;;;;;7.80;6.80;;;4.60;83.30;;;;;;5104940;29;20126;-73
2021/10/23 02:12:53;;;;;;;8.80;7.32;;;4.60;83.40;;;;;;5105099;29;20067;-73
2021/10/23 02:15:25;;;;;;;7.93;6.95;;;4.50;83.60;;;;;;5101556;29;20080;-75
2021/10/23 02:17:57;;;;;;;7.70;6.90;;;4.50;83.40;;;;;;5102981;29;20137;-75
2021/10/23 02:20:33;;;;;;;7.72;6.63;;;4.50;83.40;;;;;;5105551;29;20587;-75
2021/10/23 02:23:05;;;;;;;7.80;7.00;;;4.40;83.20;;;;;;5103439;29;20122;-74
2021/10/23 02:25:37;;;;;;;6.97;6.28;;;4.40;83.30;;;;;;5090077;29;20056;-74
2021/10/23 02:28:09;;;;;;;7.68;6.88;;;4.30;83.60;;;;;;5105871;29;20536;-75
2021/10/23 02:30:41;;;;;;;7.38;6.68;;;4.30;83.40;;;;;;5102675;29;20187;-75
2021/10/23 02:33:13;;;;;;;9.02;7.15;;;4.30;83.40;;;;;;5105252;29;20127;-76
2021/10/23 02:35:45;;;;;;;7.40;6.70;;;4.30;83.20;;;;;;5104687;29;20130;-76
2021/10/23 02:38:17;;;;;;;8.38;6.55;;;4.30;83.20;;;;;;5105184;29;20652;-76
2021/10/23 02:40:49;;;;;;;7.80;6.80;;;4.20;83.40;;;;;;5087532;29;20654;-76
2021/10/23 02:43:21;;;;;;;7.85;6.78;;;4.10;83.70;;;;;;5104594;29;20055;-75
2021/10/23 02:45:53;;;;;;;8.02;6.47;;;4.10;84.00;;;;;;5101296;29;20055;-75
2021/10/23 02:48:25;;;;;;;8.18;6.53;;;4.10;84.00;;;;;;5104877;29;20047;-75
2021/10/23 02:50:57;;;;;;;10.15;6.85;;;4.10;84.30;;;;;;5095033;29;20476;-75
2021/10/23 02:53:29;;;;;;;6.80;6.10;;;4.10;84.10;;;;;;5087304;29;20137;-76
2021/10/23 02:56:01;;;;;;;7.47;6.72;;;4.10;84.00;;;;;;5105064;29;20058;-75
2021/10/23 02:58:33;;;;;;;7.30;6.50;;;4.10;84.30;;;;;;5102916;29;20043;-74
2021/10/23 03:01:06;;;;;;;6.93;6.22;;;4.10;84.30;;;;;;5103676;29;20047;-76
2021/10/23 03:03:38;;;;;;;8.15;6.47;;;4.10;84.10;;;;;;5104557;29;20059;-74
2021/10/23 03:06:10;;;;;;;6.80;6.10;;;4.10;84.20;;;;;;5102498;29;20047;-75
2021/10/23 03:08:42;;;;;;;6.80;6.07;;;4.10;84.20;;;;;;5104591;29;20047;-74
2021/10/23 03:11:15;;;;;;;7.15;6.22;;;4.10;84.50;;;;;;5103746;29;20043;-76
2021/10/23 03:13:47;;;;;;;9.02;7.18;;;4.10;84.30;;;;;;5104794;29;20040;-74
2021/10/23 03:16:20;;;;;;;7.07;6.28;;;4.10;84.30;;;;;;5093147;29;20118;-76
2021/10/23 03:18:51;;;;;;;7.32;6.57;;;4.10;84.40;;;;;;5090397;29;20464;-75
2021/10/23 03:21:23;;;;;;;7.75;6.63;;;4.10;84.30;;;;;;5103444;29;20078;-76
2021/10/23 03:23:55;;;;;;;8.85;6.22;;;4.10;84.10;;;;;;5105145;29;20183;-75
2021/10/23 03:26:27;;;;;;;13.57;7.28;;;4.10;84.10;;;;;;5102280;29;20134;-75
2021/10/23 03:28:59;;;;;;;6.90;6.20;;;4.10;84.00;;;;;;5104176;29;20972;-74
2021/10/23 03:31:32;;;;;;;8.32;6.32;;;4.10;83.90;;;;;;5102712;29;20102;-76
2021/10/23 03:34:04;;;;;;;7.10;6.07;;;4.10;83.90;;;;;;5094142;29;20561;-76
2021/10/23 03:36:39;;;;;;;7.68;6.80;;;4.20;83.80;;;;;;5103439;29;20118;-74
2021/10/23 03:39:11;;;;;;;6.90;6.07;;;4.20;84.10;;;;;;5106957;29;20097;-75
2021/10/23 03:41:43;;;;;;;8.73;6.22;;;4.30;84.10;;;;;;5103837;29;20287;-74
2021/10/23 03:44:14;;;;;;;8.80;6.53;;;4.30;83.80;;;;;;5104264;29;20075;-74
2021/10/23 03:46:47;;;;;;;7.78;6.28;;;4.30;83.80;;;;;;5087962;29;20135;-75
2021/10/23 03:49:19;;;;;;;7.13;6.07;;;4.30;83.60;;;;;;5105452;29;20047;-75
2021/10/23 03:51:51;;;;;;;8.25;6.43;;;4.30;83.70;;;;;;5102823;29;20122;-75
2021/10/23 03:54:23;;;;;;;9.65;6.38;;;4.30;83.70;;;;;;5103810;29;21008;-75
2021/10/23 03:56:55;;;;;;;6.82;6.07;;;4.30;83.60;;;;;;5104185;29;20485;-73
2021/10/23 03:59:28;;;;;;;7.63;6.10;;;4.40;83.90;;;;;;5103239;29;20146;-75
2021/10/23 04:02:00;;;;;;;7.20;6.15;;;4.50;83.50;;;;;;5093391;29;20057;-73
2021/10/23 04:04:32;;;;;;;8.07;6.18;;;4.50;83.50;;;;;;5087540;29;20130;-75
2021/10/23 04:07:04;;;;;;;7.75;6.95;;;4.50;82.70;;;;;;5102632;29;20143;-74
2021/10/23 04:09:38;;;;;;;7.15;6.38;;;4.50;82.90;;;;;;5104281;29;20449;-74
2021/10/23 04:12:10;;;;;;;9.13;7.70;;;4.50;82.90;;;;;;5071783;29;20058;-74
2021/10/23 04:14:42;;;;;;;8.48;6.85;;;4.40;83.50;;;;;;5104982;29;20704;-72
2021/10/23 04:17:14;;;;;;;7.47;5.82;;;4.40;82.90;;;;;;5102280;29;20107;-72
2021/10/23 04:19:46;;;;;;;7.30;6.15;;;4.40;83.10;;;;;;5103909;29;20050;-72
2021/10/23 04:22:18;;;;;;;8.65;6.50;;;4.40;83.00;;;;;;5102443;29;20157;-72
2021/10/23 04:24:51;;;;;;;8.25;6.10;;;4.40;82.90;;;;;;5103189;29;20043;-73
2021/10/23 04:27:24;;;;;;;7.93;6.40;;;4.40;83.10;;;;;;5101764;29;20071;-73
2021/10/23 04:29:55;;;;;;;8.15;6.20;;;4.40;83.10;;;;;;5103788;29;20047;-73
2021/10/23 04:32:31;;;;;;;7.35;6.55;;;4.40;83.10;;;;;;5103501;29;20043;-73
2021/10/23 04:35:03;;;;;;;8.25;6.43;;;4.30;83.10;;;;;;5101803;29;20114;-73
2021/10/23 04:37:35;;;;;;;8.00;6.28;;;4.30;83.40;;;;;;5100904;29;20073;-72
2021/10/23 04:40:08;;;;;;;7.68;6.20;;;4.40;83.00;;;;;;5104904;29;20575;-73
2021/10/23 04:42:40;;;;;;;8.00;5.70;;;4.30;83.10;;;;;;5103866;29;20508;-73
2021/10/23 04:45:12;;;;;;;6.70;5.97;;;4.40;83.10;;;;;;5103103;29;20428;-73
2021/10/23 04:47:44;;;;;;;7.65;6.07;;;4.30;83.30;;;;;;5103321;29;20111;-73
2021/10/23 04:50:16;;;;;;;7.75;5.78;;;4.30;83.60;;;;;;5102929;29;20058;-72
2021/10/23 04:52:48;;;;;;;7.72;5.75;;;4.30;83.80;;;;;;5102729;29;20501;-73
2021/10/23 04:55:20;;;;;;;7.65;6.30;;;4.30;83.70;;;;;;5104315;29;20071;-74
2021/10/23 04:57:52;;;;;;;7.43;6.25;;;4.30;83.50;;;;;;5102655;29;20071;-73
2021/10/23 05:00:25;;;;;;;8.02;6.10;;;4.30;83.60;;;;;;5102500;29;20050;-72
2021/10/23 05:02:57;;;;;;;5.97;5.32;;;4.30;83.70;;;;;;5103407;29;20056;-72
2021/10/23 05:05:29;;;;;;;6.95;5.72;;;4.30;83.60;;;;;;5101818;29;20044;-71
2021/10/23 05:08:01;;;;;;;6.22;5.50;;;4.30;83.70;;;;;;5102225;29;20496;-72
2021/10/23 05:10:32;;;;;;;7.68;6.20;;;4.30;83.40;;;;;;5093099;29;20055;-73
2021/10/23 05:13:04;;;;;;;7.22;6.40;;;4.40;83.40;;;;;;5100775;29;20139;-72
2021/10/23 05:15:36;;;;;;;6.70;6.00;;;4.40;84.00;;;;;;5100245;29;20046;-73
2021/10/23 05:18:09;;;;;;;7.75;6.40;;;4.50;83.40;;;;;;5102494;29;20059;-73
2021/10/23 05:20:40;;;;;;;6.93;5.95;;;4.40;82.90;;;;;;5101812;29;20095;-72
2021/10/23 05:23:12;;;;;;;7.05;5.70;;;4.40;83.00;;;;;;5102896;29;20055;-72
2021/10/23 05:25:44;;;;;;;7.18;5.97;;;4.30;82.80;;;;;;5088517;29;20143;-73
2021/10/23 05:28:16;;;;;;;7.18;6.28;;;4.30;83.10;;;;;;5102756;29;20047;-73
2021/10/23 05:30:48;;;;;;;7.20;5.72;;;4.20;83.00;;;;;;5102636;29;20044;-73
2021/10/23 05:33:20;;;;;;;6.88;6.18;;;4.20;83.10;;;;;;5086061;29;20758;-73
2021/10/23 05:35:52;;;;;;;6.90;6.20;;;4.10;83.10;;;;;;5104579;29;20059;-73
2021/10/23 05:38:24;;;;;;;6.47;5.88;;;4.10;83.30;;;;;;5103469;29;20052;-73
2021/10/23 05:40:56;;;;;;;7.05;5.70;;;4.10;83.20;;;;;;5103905;29;20740;-73
2021/10/23 05:43:28;;;;;;;7.53;6.50;;;4.20;83.00;;;;;;5101867;29;20135;-71
2021/10/23 05:45:59;;;;;;;7.45;6.25;;;4.20;82.50;;;;;;5105907;29;20031;-72
2021/10/23 05:48:31;;;;;;;7.47;6.22;;;4.20;82.90;;;;;;5101781;29;20048;-73
2021/10/23 05:51:04;;;;;;;8.38;6.40;;;4.10;83.20;;;;;;5104817;29;20064;-74
2021/10/23 05:53:36;;;;;;;6.63;5.93;;;4.10;83.40;;;;;;5107843;29;20059;-74
2021/10/23 05:56:08;;;;;;;7.45;5.90;;;4.00;83.30;;;;;;5107138;29;20748;-73
2021/10/23 05:58:39;;;;;;;7.63;5.70;;;3.90;83.50;;;;;;5104000;29;20063;-72
2021/10/23 06:01:11;;;;;;;7.50;5.90;;;3.80;83.60;;;;;;5105996;29;20162;-74
2021/10/23 06:03:44;;;;;;;7.20;5.97;;;3.80;83.90;;;;;;5108305;29;20046;-75
2021/10/23 06:06:17;;;;;;;8.88;6.30;;;3.80;84.10;;;;;;5103652;29;20044;-74
2021/10/23 06:08:49;;;;;;;7.18;6.00;;;3.80;84.10;;;;;;5086643;29;20047;-75
2021/10/23 06:11:21;;;;;;;7.97;5.68;;;3.70;83.90;;;;;;5104539;29;20071;-75
2021/10/23 06:13:56;;;;;;;7.03;5.40;;;3.70;84.00;;;;;;5106248;29;20146;-73
2021/10/23 06:16:27;;;;;;;7.53;5.72;;;3.70;84.00;;;;;;5096830;29;20078;-75
2021/10/23 06:18:59;;;;;;;7.05;5.50;;;3.60;84.20;;;;;;5091150;29;20043;-75
2021/10/23 06:21:31;;;;;;;6.68;5.90;;;3.60;84.30;;;;;;5094627;29;20094;-74
2021/10/23 06:24:03;;;;;;;7.03;5.53;;;3.60;84.30;;;;;;5103622;29;20055;-73
2021/10/23 06:26:35;;;;;;;7.47;5.72;;;3.70;84.20;;;;;;5105399;29;20115;-72
2021/10/23 06:29:07;;;;;;;9.75;5.88;;;3.70;84.10;;;;;;5076074;29;20054;-73
2021/10/23 06:31:39;;;;;;;7.30;5.97;;;3.70;84.20;;;;;;5103392;29;20473;-72
2021/10/23 06:34:11;;;;;;;6.30;5.35;;;3.80;84.50;;;;;;5104203;29;20118;-73
2021/10/23 06:36:43;;;;;;;7.20;5.65;;;3.80;84.30;;;;;;5102943;29;20048;-73
2021/10/23 06:39:15;;;;;;;7.97;6.22;;;3.80;83.90;;;;;;5106116;29;20047;-73
2021/10/23 06:41:47;;;;;;;6.63;5.47;;;3.80;83.60;;;;;;5103432;29;20497;-74
2021/10/23 06:44:19;;;;;;;7.20;5.95;;;3.80;83.60;;;;;;5105405;29;20053;-73
2021/10/23 06:46:51;;;;;;;8.80;6.30;;;3.90;83.90;;;;;;5103290;29;20071;-73
2021/10/23 06:49:23;;;;;;;6.95;5.70;;;3.90;83.80;;;;;;5107678;29;20720;-74
2021/10/23 06:51:55;;;;;;;6.80;5.93;;;4.00;83.60;;;;;;5103650;29;20067;-75
2021/10/23 06:54:26;;;;;;;7.25;5.80;;;4.10;83.70;;;;;;5089980;29;21078;-73
2021/10/23 06:56:58;;;;;;;6.40;5.70;;;4.20;83.50;;;;;;5103840;29;20049;-74
2021/10/23 06:59:47;;;;;;;7.03;6.10;;;4.20;83.10;;;;;;5104441;28;20043;-74
2021/10/23 07:02:19;;;;;;;9.30;7.55;;;4.30;83.60;;;;;;5102298;29;20051;-74
2021/10/23 07:04:52;;;;;;;9.05;7.22;;;4.40;85.40;;;;;;5103445;29;20055;-73
2021/10/23 07:07:25;;;;;;;9.90;7.03;;;4.50;85.20;;;;;;5103127;29;20462;-74
2021/10/23 07:09:57;;;;;;;9.02;6.95;;;4.60;83.50;;;;;;5102771;29;20047;-74
2021/10/23 07:12:29;;;;;;;7.82;6.03;;;4.70;83.30;;;;;;5099190;29;20058;-74
2021/10/23 07:15:02;;;;;;;9.63;6.22;;;4.80;82.80;;;;;;5102070;29;20518;-73
2021/10/23 07:17:34;;;;;;;9.18;6.63;;;4.90;83.20;;;;;;5103596;29;20179;-74
2021/10/23 07:20:07;;;;;;;8.00;6.75;;;5.00;83.10;;;;;;5101873;29;20092;-74
2021/10/23 07:22:39;;;;;;;8.77;6.78;;;5.10;83.00;;;;;;5100416;29;20067;-75
2021/10/23 07:25:11;;;;;;;7.47;6.35;;;5.20;82.80;;;;;;5100925;29;20067;-74
2021/10/23 07:27:43;;;;;;;9.57;7.45;;;5.30;82.20;;;;;;5101755;29;20133;-74
2021/10/23 07:30:15;;;;;;;8.35;6.88;;;5.40;82.60;;;;;;5100208;29;20122;-72
2021/10/23 07:32:47;;;;;;;11.57;7.22;;;5.60;82.90;;;;;;5087336;29;20513;-73
2021/10/23 07:35:19;;;;;;;9.07;7.15;;;5.60;82.10;;;;;;5101371;29;20035;-74
2021/10/23 07:37:51;;;;;;;9.27;7.38;;;5.80;82.30;;;;;;5101129;29;20665;-74
2021/10/23 07:40:23;;;;;;;8.98;7.45;;;5.90;81.90;;;;;;5085253;29;20108;-74
2021/10/23 07:42:55;;;;;;;8.38;7.40;;;6.00;82.00;;;;;;5101919;29;20048;-74
2021/10/23 07:45:27;;;;;;;8.93;7.63;;;6.10;82.00;;;;;;5102532;29;20043;-73
2021/10/23 07:47:59;;;;;;;9.60;8.05;;;6.20;82.20;;;;;;5088630;29;20055;-74
2021/10/23 07:50:31;;;;;;;9.15;7.75;;;6.30;82.80;;;;;;5093229;29;20682;-74
2021/10/23 07:53:03;;;;;;;9.48;7.80;;;6.40;82.00;;;;;;5100307;29;21157;-74
2021/10/23 07:55:35;;;;;;;10.38;8.38;;;6.40;82.00;;;;;;5103029;29;20047;-73
2021/10/23 07:58:07;;;;;;;10.88;7.85;;;6.50;81.90;;;;;;5103069;29;20073;-73
2021/10/23 08:00:39;;;;;;;9.43;8.27;;;6.70;80.60;;;;;;5102072;29;20046;-73
2021/10/23 08:03:11;;;;;;;8.90;7.93;;;6.80;80.30;;;;;;5103119;29;20047;-72
2021/10/23 08:05:43;;;;;;;12.20;8.32;;;6.90;79.60;;;;;;5102488;29;20066;-74
2021/10/23 08:08:15;;;;;;;8.93;8.02;;;7.10;79.20;;;;;;5102385;29;20079;-73
2021/10/23 08:10:47;;;;;;;8.57;7.68;;;7.20;78.70;;;;;;5101916;29;20050;-75
2021/10/23 08:13:19;;;;;;;8.35;7.53;;;7.30;78.70;;;;;;5102335;29;20501;-74
2021/10/23 08:15:51;;;;;;;9.13;7.85;;;7.40;79.20;;;;;;5078592;29;20054;-77
2021/10/23 08:18:24;;;;;;;9.00;8.00;;;7.50;78.10;;;;;;5073808;29;20125;-78
2021/10/23 08:20:56;;;;;;;9.30;8.00;;;7.60;77.20;;;;;;5085165;29;20098;-76
2021/10/23 08:23:28;;;;;;;10.45;8.38;;;7.70;77.50;;;;;;5104981;29;20043;-77
2021/10/23 08:26:04;;;;;;;9.70;8.70;;;7.80;78.20;;;;;;5102734;29;20187;-75
2021/10/23 08:28:37;;;;;;;12.05;8.13;;;7.90;76.90;;;;;;5078126;29;20141;-76
2021/10/23 08:31:09;;;;;;;11.02;8.60;;;8.00;77.30;;;;;;5086311;29;20059;-76
2021/10/23 08:33:41;;;;;;;9.18;7.90;;;8.20;76.50;;;;;;5103726;29;20191;-77
2021/10/23 08:36:13;;;;;;;11.73;8.88;;;8.20;75.90;;;;;;5100697;29;20122;-77
2021/10/23 08:38:45;;;;;;;9.38;8.48;;;8.30;75.80;;;;;;5073005;29;20053;-75
2021/10/23 08:41:18;;;;;;;9.18;8.27;;;8.40;74.70;;;;;;5101162;29;20058;-75
2021/10/23 08:43:52;;;;;;;9.68;8.35;;;8.50;74.20;;;;;;5105523;29;20067;-75
2021/10/23 08:46:27;;;;;;;9.63;8.55;;;8.60;74.20;;;;;;5104925;29;20142;-75
2021/10/23 08:49:01;;;;;;;9.68;8.57;;;8.70;74.00;;;;;;5104448;29;20727;-75
2021/10/23 08:51:36;;;;;;;9.82;8.15;;;8.80;73.20;;;;;;5102479;29;20150;-73
2021/10/23 08:54:08;;;;;;;9.10;8.20;;;9.00;72.70;;;;;;5075548;29;20047;-74
2021/10/23 08:56:41;;;;;;;10.25;8.27;;;9.00;72.80;;;;;;5100431;29;20043;-76
2021/10/23 08:59:12;;;;;;;9.27;8.35;;;9.10;72.40;;;;;;5089012;29;20126;-76
2021/10/23 09:01:49;;;;;;;10.18;8.20;;;9.20;70.90;;;;;;5103136;29;20050;-72
2021/10/23 09:04:21;;;;;;;9.88;8.23;;;9.30;70.60;;;;;;5085187;29;20147;-72
2021/10/23 09:07:04;;;;;;;8.23;7.43;;;9.30;68.40;;;;;;5103049;29;20679;-72
2021/10/23 09:09:58;;;;;;;9.30;7.80;;;9.40;66.10;;;;;;5101317;29;20047;-71
2021/10/23 09:12:31;;;;;;;8.63;7.78;;;9.30;65.80;;;;;;5085862;29;20079;-72
2021/10/23 09:15:10;;;;;;;9.07;7.72;;;9.40;68.80;;;;;;5104093;29;20047;-74
2021/10/23 09:17:49;;;;;;;8.93;7.72;;;9.60;67.10;;;;;;5102951;29;20126;-73
2021/10/23 09:20:21;;;;;;;8.15;7.35;;;9.70;67.80;;;;;;5102595;29;20063;-73
2021/10/23 09:22:54;;;;;;;9.20;7.68;;;9.80;64.90;;;;;;5087855;28;20054;-72
2021/10/23 09:25:35;;;;;;;9.77;8.25;;;9.90;66.70;;;;;;5091878;29;20043;-73
2021/10/23 09:28:09;;;;;;;;;;;10.10;67.30;;;;;;5107171;29;20123;-74
2021/10/23 09:30:49;;;;;;;8.27;7.35;;;10.20;66.60;;;;;;5107157;29;19926;-73
2021/10/23 09:33:23;;;;;;;8.75;7.28;;;10.30;61.00;;;;;;5106822;29;20102;-73
2021/10/23 09:35:59;;;;;;;8.27;7.47;;;10.30;65.00;;;;;;5106785;29;20134;-73
2021/10/23 09:38:33;;;;;;;7.72;6.93;;;10.40;64.20;;;;;;5106114;29;20036;-72
2021/10/23 09:41:14;;;;;;;9.57;7.28;;;10.50;62.40;;;;;;5107438;29;20617;-73
2021/10/23 09:43:47;;;;;;;9.95;7.95;;;10.60;63.00;;;;;;5108902;29;20123;-74
2021/10/23 09:46:24;;;;;;;9.30;7.88;;;10.60;58.80;;;;;;5104503;29;20054;-73
2021/10/23 09:48:57;;;;;;;8.30;7.50;;;10.60;57.60;;;;;;5096543;29;20051;-73
2021/10/23 09:51:38;;;;;;;8.55;7.65;;;10.40;59.90;;;;;;5090307;29;20055;-73
2021/10/23 09:54:15;;;;;;;9.38;7.70;;;10.50;60.40;;;;;;5091984;29;20039;-72
2021/10/23 09:56:50;;;;;;;8.35;7.50;;;10.60;58.90;;;;;;5107058;29;20044;-74
2021/10/23 09:59:34;;;;;;;8.00;7.28;;;10.40;60.80;;;;;;5088953;29;20049;-73
2021/10/23 10:02:07;;;;;;;9.85;7.28;;;10.70;60.50;;;;;;5106443;29;20062;-73
2021/10/23 10:04:39;;;;;;;8.73;7.82;;;10.80;59.80;;;;;;5096651;29;20847;-72
2021/10/23 10:07:11;;;;;;;8.40;7.60;;;10.90;62.40;;;;;;5106347;29;20039;-73
2021/10/23 10:09:46;;;;;;;8.98;8.07;;;11.00;62.70;;;;;;5108213;29;20083;-73
2021/10/23 10:12:17;;;;;;;8.98;8.05;;;11.10;62.20;;;;;;5105859;29;20087;-73
2021/10/23 10:14:51;;;;;;;9.20;7.93;;;11.20;62.60;;;;;;5105708;29;20118;-73
2021/10/23 10:17:25;;;;;;;9.00;8.10;;;11.30;62.10;;;;;;5108821;29;20070;-73
2021/10/23 10:19:58;;;;;;;9.40;7.78;;;11.30;61.20;;;;;;5103857;29;20044;-73
2021/10/23 10:22:30;;;;;;;9.93;8.02;;;11.50;60.90;;;;;;5089687;29;20578;-74
2021/10/23 10:25:25;;;;;;;8.82;8.02;;;11.50;61.70;;;;;;5104188;29;20172;-75
2021/10/23 10:28:08;;;;;;;9.52;8.40;;;11.50;58.30;;;;;;5104498;29;20174;-71
2021/10/23 10:30:44;;;;;;;9.20;8.07;;;11.40;58.60;;;;;;5102793;29;20058;-71
2021/10/23 10:33:34;;;;;;;9.10;7.75;;;11.60;60.50;;;;;;5104648;29;20558;-71
2021/10/23 10:39:39;;;;;;;8.77;7.88;;;11.70;59.30;;;;;;5104348;29;20118;-71
2021/10/23 10:42:50;;;;;;;9.02;8.18;;;11.80;59.20;;;;;;5102067;29;20067;-73
2021/10/23 10:45:25;;;;;;;10.70;8.48;;;11.80;56.30;;;;;;5104683;29;20043;-71
2021/10/23 10:48:21;;;;;;;8.77;7.88;;;11.80;55.00;;;;;;5089448;29;20051;-71
2021/10/23 10:50:58;;;;;;;8.95;7.70;;;11.80;55.60;;;;;;5104637;29;20047;-72
2021/10/23 10:53:40;;;;;;;8.68;7.75;;;11.80;55.40;;;;;;5104157;29;20122;-71
2021/10/23 10:56:14;;;;;;;8.02;7.32;;;11.80;53.00;;;;;;5088539;29;20047;-72
2021/10/23 10:58:57;;;;;;;8.48;7.53;;;11.70;56.60;;;;;;5103983;29;20117;-70
2021/10/23 11:01:31;;;;;;;9.70;7.72;;;11.70;54.10;;;;;;5103724;29;20524;-72
2021/10/23 11:04:11;;;;;;;10.90;8.00;;;11.80;54.40;;;;;;5105391;29;20134;-71
2021/10/23 11:06:52;;;;;;;8.70;7.77;;;11.70;54.10;;;;;;5103242;29;20050;-71
2021/10/23 11:09:30;;;;;;;9.27;8.27;;;11.70;55.00;;;;;;5104775;29;20872;-71
2021/10/23 11:12:03;;;;;;;8.88;7.80;;;11.80;57.40;;;;;;5103568;29;20126;-72
2021/10/23 11:14:35;;;;;;;8.82;7.93;;;11.80;57.20;;;;;;5105959;29;20631;-73
2021/10/23 11:17:10;;;;;;;8.63;7.78;;;11.90;57.70;;;;;;5089606;29;20075;-71
2021/10/23 11:19:51;;;;;;;8.20;7.40;;;11.90;56.90;;;;;;5104156;29;20048;-71
2021/10/23 11:22:32;;;;;;;8.65;7.72;;;11.90;56.50;;;;;;5104642;29;20050;-72
2021/10/23 11:25:08;;;;;;;8.45;7.63;;;11.90;56.10;;;;;;5104478;29;20035;-71
2021/10/23 11:27:45;;;;;;;8.20;7.40;;;11.90;56.70;;;;;;5104069;29;20051;-71
2021/10/23 11:30:23;;;;;;;8.55;7.75;;;11.80;56.50;;;;;;5083879;29;20047;-72
2021/10/23 11:32:58;;;;;;;8.23;7.53;;;11.80;56.50;;;;;;5087768;29;20054;-72
2021/10/23 11:35:35;;;;;;;8.30;7.40;;;11.90;55.90;;;;;;5087751;29;20134;-71
2021/10/23 11:38:23;;;;;;;9.13;7.65;;;11.80;53.00;;;;;;5102676;29;20179;-71
2021/10/23 11:40:57;;;;;;;8.57;7.78;;;11.90;55.00;;;;;;5101567;29;20094;-71
2021/10/23 11:43:32;;;;;;;8.50;7.55;;;11.90;54.30;;;;;;5090806;29;20055;-71
2021/10/23 11:46:06;;;;;;;8.73;7.90;;;11.70;54.10;;;;;;5089261;29;20190;-71
2021/10/23 11:48:38;;;;;;;8.98;8.02;;;11.70;54.40;;;;;;5088055;29;20127;-71
2021/10/23 11:51:10;;;;;;;8.98;8.07;;;11.70;55.00;;;;;;5101015;29;20180;-73
2021/10/23 11:53:42;;;;;;;8.88;8.07;;;11.70;54.40;;;;;;5103854;29;20200;-72
2021/10/23 11:56:14;;;;;;;8.73;7.82;;;11.70;54.80;;;;;;5103107;29;20153;-72
2021/10/23 11:58:46;;;;;;;8.98;8.00;;;11.60;53.60;;;;;;5103829;29;20044;-72
2021/10/23 12:01:21;;;;;;;8.90;8.00;;;11.70;55.30;;;;;;5101971;29;20081;-71
2021/10/23 12:04:00;;;;;;;8.50;7.70;;;11.70;56.40;;;;;;5103130;29;20138;-73
2021/10/23 12:06:41;;;;;;;8.43;7.63;;;11.80;56.30;;;;;;5104409;29;20051;-72
2021/10/23 12:09:28;;;;;;;9.15;7.88;;;11.80;54.00;;;;;;5103891;29;20048;-72
2021/10/23 12:12:13;;;;;;;8.00;7.20;;;11.70;54.40;;;;;;5092707;29;20906;-72
2021/10/23 12:14:45;;;;;;;9.20;7.50;;;11.70;55.20;;;;;;5087578;29;20129;-72
2021/10/23 12:17:25;;;;;;;8.40;7.60;;;11.70;55.60;;;;;;5104228;29;20046;-73
2021/10/23 12:20:13;;;;;;;8.40;7.55;;;11.70;53.20;;;;;;5088006;29;20710;-71
2021/10/23 12:22:45;;;;;;;8.15;7.35;;;11.70;55.00;;;;;;5079989;29;20054;-71
2021/10/23 12:25:17;;;;;;;8.57;7.40;;;11.70;54.40;;;;;;5057294;29;85549;-72
2021/10/23 12:28:01;;;;;;;8.20;7.40;;;11.70;54.70;;;;;;5027445;29;75346;-71
2021/10/23 12:30:33;;;;;;;7.68;6.90;;;11.70;55.50;;;;;;5041495;29;20179;-71
2021/10/23 12:35:23;;;;;;;8.48;7.68;;;11.60;55.10;;;;;;7304700;19;97639;-71
2021/10/23 12:38:00;;;;;;;8.65;7.72;;;11.60;54.80;;;;;;7642218;19;20081;-73
2021/10/23 12:40:39;;;;;;;8.45;7.55;;;11.70;56.90;;;;;;7669976;19;20444;-72
2021/10/23 12:43:14;;;;;;;8.95;7.60;;;11.70;55.20;;;;;;7671018;19;20527;-72
2021/10/23 12:45:49;;;;;;;8.23;7.45;;;11.70;55.60;;;;;;7671903;19;20026;-72
2021/10/23 12:48:22;;;;;;;8.57;7.78;;;11.70;55.50;;;;;;7671238;19;20022;-71
2021/10/23 12:50:56;;;;;;;8.13;7.25;;;11.70;56.70;;;;;;7669237;19;20022;-69
2021/10/23 12:53:28;;;;;;;8.65;7.60;;;11.60;55.40;;;;;;7670732;19;20049;-71
2021/10/23 12:56:00;;;;;;;8.40;7.60;;;11.60;55.50;;;;;;7670269;19;20011;-71
2021/10/23 12:58:32;;;;;;;8.55;7.75;;;11.60;56.50;;;;;;7673911;19;20010;-71
2021/10/23 13:01:04;;;;;;;8.60;7.35;;;11.50;55.20;;;;;;7669814;19;20010;-72
2021/10/23 13:03:36;;;;;;;9.02;8.00;;;11.40;56.00;;;;;;7673194;19;20022;-70
2021/10/23 13:06:08;;;;;;;8.40;7.60;;;11.40;57.10;;;;;;7671661;19;20090;-70
2021/10/23 13:08:45;;;;;;;9.02;8.23;;;11.50;56.90;;;;;;7673257;19;20034;-71
2021/10/23 13:11:17;;;;;;;8.73;7.93;;;11.50;57.70;;;;;;7670919;19;20031;-70
2021/10/23 13:13:49;;;;;;;8.82;8.00;;;11.50;56.50;;;;;;7671426;19;20018;-71
2021/10/23 13:16:21;;;;;;;9.95;7.63;;;11.50;57.90;;;;;;7670583;19;20019;-70
2021/10/23 13:18:54;;;;;;;8.68;7.88;;;11.50;56.70;;;;;;7671962;19;20010;-70
2021/10/23 13:21:25;;;;;;;8.45;7.57;;;11.40;57.20;;;;;;7669512;19;20003;-71
2021/10/23 13:23:59;;;;;;;7.97;7.28;;;11.40;57.60;;;;;;7666051;19;20076;-71
2021/10/23 13:26:31;;;;;;;8.45;7.65;;;11.40;57.50;;;;;;7668594;19;20011;-70
2021/10/23 13:29:03;;;;;;;8.68;7.88;;;11.30;57.30;;;;;;7669539;19;20070;-70
2021/10/23 13:31:35;;;;;;;8.45;7.70;;;11.30;58.10;;;;;;7670507;19;20002;-71